Pagrindinis puslapis
METAR-TAF:

METAR-TAF

Oro uostai :

Nakhon Phanom, Tailandas

platuma: 17-23-02N, ilguma: 104-38-35E, Aukštis: 179 m

Dabartinis oras

Ataskaita buvo paskelbta 4 valandos ir 51 minutes, ne 13:00 UTC
Vėjas 3 kt iš Pietų/Pietryčių
Temperatūra 28°C
Drėgmė 89%
Slėgis 1006 hPa
Matomumas 10 km arba daugiau
Mažai debesys ne aukštis 3000 ft

METAR: VTUW 301300Z 15003KT 9999 FEW030 28/26 Q1006 NOSIG

Laikas: 00:51 (17:51 UTC)

Prognozė

Ataskaita buvo paskelbta 51 minutes, ne 17:00 UTC
Prognozė galioja nuo 30 metu 18 UTC su 01 metu 18 UTC
Vėjas 5 kt iš Pietryčių
Matomumas 10 km arba daugiau
Išsisklaidę debesys ne aukštis 3000 ft
Laikinai
nuo 01 metu 07 UTC su 01 metu 13 UTC
Vėjas 15 kt nuo kintamojo kryptimis
Matomumas: 4000 m
Mažai debesys ne aukštis 1800 ft, Liūtiniai kamuoliniai debesys.
Su prošvaistėmis ne aukštis 2500 ft
Su prošvaistėmis ne aukštis 8000 ft
perkūnija, lietus

TAF: VTUW 301700Z 3018/0118 14005KT 9999 SCT030 TEMPO 0107/0113 VRB15KT 4000 TSRA FEW018CB BKN025 BKN080

Orai ataskaitas ir orų prognozės (METAR, TAF).

turimą stotys yra geltonos ir raudonos taškus žemėlapyje.

Perkelti pele per norėdami pamatyti stoties vardą.

Tada spustelėkite, norėdami matyti oro stebėjimo ir prognozės.

Norėdami pakeisti žemėlapį: spustelėkite ant žalios mygtukų su juodo kryžiaus žemyn,; žalią mygtuką su brūkšneliu, jei norite nutolinti; arba žalių rodyklių gretimoms žemėlapius.


METAR-TAF: